createdAt,value
2023-05-17T00:01:43.338Z,98808.64
2023-05-17T00:04:10.531Z,98805.61
2023-05-17T00:06:37.286Z,98805.23
2023-05-17T00:09:04.162Z,98801.42
2023-05-17T00:11:30.867Z,98798.61
2023-05-17T00:13:57.579Z,98796.21
2023-05-17T00:16:24.339Z,98796.49
2023-05-17T00:18:51.471Z,98795.33
2023-05-17T00:21:18.330Z,98792.63
2023-05-17T00:23:45.597Z,98794.29
2023-05-17T00:26:13.753Z,98796.73
2023-05-17T00:28:40.569Z,98795.36
2023-05-17T00:31:07.356Z,98794.21
2023-05-17T00:33:34.077Z,98795.73
2023-05-17T00:36:00.872Z,98792.95
2023-05-17T00:38:27.643Z,98801.25
2023-05-17T00:40:54.679Z,98800.11
2023-05-17T00:43:21.502Z,98795.88
2023-05-17T00:45:50.281Z,98797.05
2023-05-17T00:48:17.194Z,98797.69
2023-05-17T00:50:44.193Z,98798.11
2023-05-17T00:53:11.357Z,98797.23
2023-05-17T00:55:38.107Z,98798.43
2023-05-17T00:58:04.818Z,98795.66
2023-05-17T01:00:31.711Z,98794.95
2023-05-17T01:02:58.493Z,98795.95
2023-05-17T01:05:28.699Z,98801.33
2023-05-17T01:07:55.908Z,98806.48
2023-05-17T01:10:25.048Z,98802.55
2023-05-17T01:13:05.139Z,98805.05
2023-05-17T01:15:33.162Z,98805.04
2023-05-17T01:18:15.398Z,98804.34
2023-05-17T01:20:43.766Z,98802.36
2023-05-17T01:23:26.975Z,98804.83
2023-05-17T01:26:06.214Z,98804.71
2023-05-17T01:28:33.120Z,98804.77
2023-05-17T01:31:01.766Z,98802.89
2023-05-17T01:33:29.984Z,98802.90
2023-05-17T01:35:56.764Z,98799.27
2023-05-17T01:38:23.541Z,98796.98
2023-05-17T01:41:19.815Z,98796.98
2023-05-17T01:44:01.883Z,98799.69
2023-05-17T01:46:30.524Z,98799.38
2023-05-17T01:49:15.260Z,98794.39
2023-05-17T01:51:48.164Z,98790.27
2023-05-17T01:54:15.378Z,98784.02
2023-05-17T01:56:43.747Z,98786.55
2023-05-17T01:59:11.440Z,98780.08
2023-05-17T02:01:38.687Z,98775.80
2023-05-17T02:04:06.000Z,98769.90
2023-05-17T02:06:32.811Z,98766.70
2023-05-17T02:09:02.609Z,98767.15
2023-05-17T02:11:29.541Z,98761.48
2023-05-17T02:13:56.406Z,98759.46
2023-05-17T02:16:23.167Z,98759.44
2023-05-17T02:18:50.139Z,98757.42
2023-05-17T02:21:18.550Z,98753.27
2023-05-17T02:23:46.085Z,98751.35
2023-05-17T02:26:12.860Z,98751.68
2023-05-17T02:28:39.613Z,98749.44
2023-05-17T02:31:08.177Z,98751.92
2023-05-17T02:33:35.444Z,98754.88
2023-05-17T02:36:02.251Z,98754.25
2023-05-17T02:38:29.143Z,98753.40
2023-05-17T02:40:55.916Z,98755.54
2023-05-17T02:43:24.335Z,98749.52
2023-05-17T02:45:51.233Z,98749.59
2023-05-17T02:48:18.003Z,98743.11
2023-05-17T02:50:44.778Z,98738.21
2023-05-17T02:53:11.548Z,98740.67
2023-05-17T02:55:38.354Z,98740.25
2023-05-17T02:58:05.194Z,98741.75
2023-05-17T03:00:32.704Z,98740.52
2023-05-17T03:02:59.587Z,98736.04
2023-05-17T03:05:26.716Z,98746.17
2023-05-17T03:07:53.692Z,98757.94
2023-05-17T03:10:20.573Z,98763.60
2023-05-17T03:12:47.511Z,98762.44
2023-05-17T03:15:17.198Z,98755.67
2023-05-17T03:17:44.206Z,98759.39
2023-05-17T03:20:12.093Z,98757.17
2023-05-17T03:22:39.109Z,98756.98
2023-05-17T03:25:06.833Z,98766.48
2023-05-17T03:27:33.963Z,98762.27
2023-05-17T03:30:01.831Z,98765.84
2023-05-17T03:32:29.259Z,98767.70
2023-05-17T03:34:56.036Z,98772.28
2023-05-17T03:37:23.158Z,98771.38
2023-05-17T03:39:49.975Z,98776.58
2023-05-17T03:42:16.845Z,98778.91
2023-05-17T03:44:44.130Z,98786.83
2023-05-17T03:47:11.721Z,98787.20
2023-05-17T03:49:38.581Z,98799.14
2023-05-17T03:52:05.487Z,98799.23
2023-05-17T03:54:32.548Z,98797.73
2023-05-17T03:57:00.228Z,98798.27
2023-05-17T03:59:27.066Z,98801.97
2023-05-17T04:01:53.966Z,98803.80
2023-05-17T04:04:20.877Z,98808.84
2023-05-17T04:06:47.632Z,98806.59
2023-05-17T04:09:15.622Z,98811.79
2023-05-17T04:11:42.733Z,98816.27
2023-05-17T04:14:10.682Z,98819.09
2023-05-17T04:16:37.563Z,98817.16
2023-05-17T04:19:04.624Z,98824.30
2023-05-17T04:21:31.498Z,98822.50
2023-05-17T04:23:58.274Z,98824.06
2023-05-17T04:26:26.889Z,98825.65
2023-05-17T04:28:53.641Z,98824.30
2023-05-17T04:31:22.410Z,98823.30
2023-05-17T04:33:49.381Z,98822.73
2023-05-17T04:36:17.610Z,98831.58
2023-05-17T04:38:44.531Z,98832.51
2023-05-17T04:41:13.733Z,98831.91
2023-05-17T04:43:42.048Z,98830.58
2023-05-17T04:46:13.048Z,98836.99
2023-05-17T04:48:40.049Z,98832.94
2023-05-17T04:51:07.388Z,98833.52
2023-05-17T04:53:34.633Z,98838.89
2023-05-17T04:56:06.642Z,98833.98
2023-05-17T04:58:33.443Z,98837.10
2023-05-17T05:01:00.644Z,98836.19
2023-05-17T05:03:27.597Z,98838.80
2023-05-17T05:05:54.507Z,98838.21
2023-05-17T05:08:21.518Z,98835.51
2023-05-17T05:10:48.273Z,98836.98
2023-05-17T05:13:16.007Z,98832.02
2023-05-17T05:15:43.066Z,98830.64
2023-05-17T05:18:09.927Z,98827.66
2023-05-17T05:20:36.866Z,98827.77
2023-05-17T05:23:06.043Z,98824.04
2023-05-17T05:25:33.305Z,98829.15
2023-05-17T05:28:00.372Z,98835.19
2023-05-17T05:30:27.601Z,98833.49
2023-05-17T05:32:54.674Z,98831.90
2023-05-17T05:35:26.469Z,98832.75
2023-05-17T05:37:54.617Z,98837.11
2023-05-17T05:40:21.649Z,98831.39
2023-05-17T05:42:48.456Z,98831.08
2023-05-17T05:45:15.558Z,98829.55
2023-05-17T05:47:44.162Z,98837.43
2023-05-17T05:50:11.460Z,98837.72
2023-05-17T05:52:38.364Z,98831.90
2023-05-17T05:55:05.891Z,98837.56
2023-05-17T05:57:32.752Z,98837.00
2023-05-17T05:59:59.712Z,98836.17
2023-05-17T06:02:26.833Z,98839.96
2023-05-17T06:04:53.641Z,98838.08
2023-05-17T06:07:20.625Z,98846.73
2023-05-17T06:09:47.345Z,98844.35
2023-05-17T06:12:14.145Z,98841.58
2023-05-17T06:14:40.941Z,98850.96
2023-05-17T06:17:07.735Z,98854.30
2023-05-17T06:19:34.570Z,98855.58
2023-05-17T06:22:01.434Z,98854.77
2023-05-17T06:24:28.252Z,98854.23
2023-05-17T06:26:55.120Z,98853.73
2023-05-17T06:29:21.999Z,98858.83
2023-05-17T06:31:48.936Z,98852.54
2023-05-17T06:34:15.956Z,98856.13
2023-05-17T06:36:42.828Z,98866.55
2023-05-17T06:39:09.711Z,98857.63
2023-05-17T06:41:38.290Z,98861.80
2023-05-17T06:44:05.222Z,98866.96
2023-05-17T06:46:31.940Z,98876.34
2023-05-17T06:48:58.937Z,98871.65
2023-05-17T06:51:26.194Z,98878.20
2023-05-17T06:53:53.396Z,98879.64
2023-05-17T06:56:20.217Z,98894.25
2023-05-17T06:58:46.984Z,98886.27
2023-05-17T07:01:13.872Z,98886.36
2023-05-17T07:03:40.786Z,98882.66
2023-05-17T07:06:07.786Z,98888.27
2023-05-17T07:08:34.545Z,98889.07
2023-05-17T07:11:01.423Z,98886.69
2023-05-17T07:13:28.180Z,98891.30
2023-05-17T07:15:54.925Z,98895.16
2023-05-17T07:18:21.753Z,98892.65
2023-05-17T07:20:48.585Z,98893.15
2023-05-17T07:23:15.358Z,98889.69
2023-05-17T07:25:43.196Z,98888.10
2023-05-17T07:28:10.134Z,98886.11
2023-05-17T07:30:36.911Z,98885.80
2023-05-17T07:33:03.846Z,98888.95
2023-05-17T07:35:31.175Z,98888.56
2023-05-17T07:37:58.154Z,98892.45
2023-05-17T07:40:25.048Z,98901.16
2023-05-17T07:42:52.067Z,98899.10
2023-05-17T07:45:19.003Z,98899.21
2023-05-17T07:47:45.834Z,98899.30
2023-05-17T07:50:12.794Z,98902.02
2023-05-17T07:52:39.656Z,98900.48
2023-05-17T07:55:07.230Z,98906.45
2023-05-17T07:57:34.129Z,98909.64
2023-05-17T08:00:01.059Z,98906.33
2023-05-17T08:02:27.906Z,98913.66
2023-05-17T08:04:54.830Z,98913.19
2023-05-17T08:07:21.697Z,98913.66
2023-05-17T08:09:48.428Z,98912.16
2023-05-17T08:12:15.222Z,98916.09
2023-05-17T08:14:42.168Z,98912.23
2023-05-17T08:17:08.986Z,98915.36
2023-05-17T08:19:36.462Z,98914.66
2023-05-17T08:22:03.690Z,98916.48
2023-05-17T08:24:30.475Z,98918.04
2023-05-17T08:26:57.408Z,98922.13
2023-05-17T08:29:24.276Z,98924.96
2023-05-17T08:31:52.555Z,98921.05
2023-05-17T08:34:19.366Z,98924.48
2023-05-17T08:36:46.238Z,98924.89
2023-05-17T08:39:13.018Z,98929.39
2023-05-17T08:41:39.953Z,98930.21
2023-05-17T08:44:06.727Z,98930.45
2023-05-17T08:46:33.773Z,98936.73
2023-05-17T08:49:02.130Z,98941.39
2023-05-17T08:51:28.986Z,98939.20
2023-05-17T08:53:56.761Z,98943.84
2023-05-17T08:56:23.715Z,98940.05
2023-05-17T08:58:57.245Z,98939.84
2023-05-17T09:01:26.347Z,98940.32
2023-05-17T09:03:54.578Z,98948.76
2023-05-17T09:06:22.389Z,98952.47
2023-05-17T09:08:53.192Z,98948.26
2023-05-17T09:11:30.740Z,98951.91
2023-05-17T09:14:01.546Z,98953.02
2023-05-17T09:16:29.696Z,98953.33
2023-05-17T09:18:57.222Z,98955.68
2023-05-17T09:21:24.735Z,98954.52
2023-05-17T09:24:04.748Z,98956.00
2023-05-17T09:26:43.240Z,98952.70
2023-05-17T09:29:15.150Z,98955.95
2023-05-17T09:31:42.284Z,98957.44
2023-05-17T09:34:09.463Z,98951.54
2023-05-17T09:36:37.504Z,98953.65
2023-05-17T09:39:06.193Z,98954.20
2023-05-17T09:41:33.901Z,98956.25
2023-05-17T09:44:01.458Z,98955.75
2023-05-17T09:46:41.381Z,98958.39
2023-05-17T09:49:09.322Z,98954.39
2023-05-17T09:51:38.791Z,98956.77
2023-05-17T09:54:10.364Z,98952.70
2023-05-17T09:56:37.283Z,98952.30
2023-05-17T09:59:04.947Z,98950.54
2023-05-17T10:01:32.167Z,98954.17
2023-05-17T10:04:01.212Z,98954.23
2023-05-17T10:08:59.952Z,98955.52
2023-05-17T10:11:35.709Z,98959.95
2023-05-17T10:14:12.637Z,98958.02
2023-05-17T10:16:39.585Z,98964.61
2023-05-17T10:19:06.411Z,98959.68
2023-05-17T10:21:33.321Z,98962.00
2023-05-17T10:24:01.031Z,98962.22
2023-05-17T10:26:28.418Z,98966.66
2023-05-17T10:29:00.765Z,98970.79
2023-05-17T10:31:31.433Z,98967.79
2023-05-17T10:33:58.252Z,98971.55
2023-05-17T10:36:25.065Z,98966.71
2023-05-17T10:38:51.993Z,98970.04
2023-05-17T10:41:19.965Z,98964.87
2023-05-17T10:43:46.966Z,98969.20
2023-05-17T10:46:17.953Z,98966.21
2023-05-17T10:48:44.812Z,98962.88
2023-05-17T10:51:12.013Z,98963.09
2023-05-17T10:54:04.388Z,98965.34
2023-05-17T10:56:31.642Z,98968.14
2023-05-17T10:59:18.486Z,98964.50
2023-05-17T11:02:09.879Z,98963.78
2023-05-17T11:04:37.404Z,98971.05
2023-05-17T11:07:26.589Z,98967.13
2023-05-17T11:09:54.273Z,98970.02
2023-05-17T11:12:33.602Z,98963.16
2023-05-17T11:15:01.191Z,98959.93
2023-05-17T11:17:28.777Z,98958.31
2023-05-17T11:19:56.363Z,98959.61
2023-05-17T11:22:23.800Z,98958.72
2023-05-17T11:24:51.335Z,98949.94
2023-05-17T11:27:18.679Z,98952.45
2023-05-17T11:29:48.396Z,98943.05
2023-05-17T11:32:15.118Z,98947.88
2023-05-17T11:38:46.612Z,98947.61
2023-05-17T11:43:48.912Z,98947.08
2023-05-17T11:46:34.874Z,98944.27
2023-05-17T11:52:23.392Z,98938.41
2023-05-17T11:54:50.640Z,98936.60
2023-05-17T11:57:18.124Z,98941.78
2023-05-17T11:59:44.861Z,98935.45
2023-05-17T12:02:11.566Z,98933.80
2023-05-17T12:04:38.756Z,98937.98
2023-05-17T12:07:08.369Z,98935.10
2023-05-17T12:09:35.441Z,98938.48
2023-05-17T12:12:03.991Z,98933.81
2023-05-17T12:14:30.664Z,98946.02
2023-05-17T12:16:57.372Z,98945.23
2023-05-17T12:19:25.163Z,98945.25
2023-05-17T12:21:51.976Z,98941.55
2023-05-17T12:24:18.769Z,98948.67
2023-05-17T12:26:46.047Z,98953.38
2023-05-17T12:29:14.076Z,98941.98
2023-05-17T12:31:42.414Z,98941.55
2023-05-17T12:34:16.820Z,98946.99
2023-05-17T12:36:43.607Z,98952.86
2023-05-17T12:39:11.409Z,98949.74
2023-05-17T12:41:38.723Z,98952.05
2023-05-17T12:44:15.143Z,98948.80
2023-05-17T12:46:43.265Z,98954.44
2023-05-17T12:49:11.138Z,98969.63
2023-05-17T12:51:44.166Z,98961.18
2023-05-17T12:54:25.336Z,98956.52
2023-05-17T12:56:52.083Z,98973.95
2023-05-17T12:59:19.213Z,98965.20
2023-05-17T13:01:45.911Z,98961.55
2023-05-17T13:04:12.954Z,98965.80
2023-05-17T13:06:49.044Z,98959.30
2023-05-17T13:09:16.393Z,98966.73
2023-05-17T13:11:43.085Z,98977.46
2023-05-17T13:14:10.322Z,98968.91
2023-05-17T13:16:40.428Z,98974.34
2023-05-17T13:19:13.808Z,98969.91
2023-05-17T13:21:40.857Z,98978.03
2023-05-17T13:24:08.895Z,98977.02
2023-05-17T13:26:35.686Z,98971.40
2023-05-17T13:29:02.365Z,98967.67
2023-05-17T13:31:29.033Z,98972.52
2023-05-17T13:33:56.500Z,98970.65
2023-05-17T13:36:24.129Z,98971.96
2023-05-17T13:38:50.937Z,98972.21
2023-05-17T13:41:17.887Z,98962.34
2023-05-17T13:43:44.557Z,98961.10
2023-05-17T13:46:11.420Z,98960.71
2023-05-17T13:48:39.784Z,98953.56
2023-05-17T13:51:08.654Z,98951.58
2023-05-17T13:53:35.350Z,98951.61
2023-05-17T13:56:02.098Z,98952.94
2023-05-17T13:58:28.805Z,98952.22
2023-05-17T14:00:55.497Z,98952.73
2023-05-17T14:03:22.380Z,98947.05
2023-05-17T14:05:50.757Z,98952.43
2023-05-17T14:08:17.700Z,98947.79
2023-05-17T14:10:44.539Z,98947.06
2023-05-17T14:13:12.188Z,98947.59
2023-05-17T14:15:39.806Z,98938.55
2023-05-17T14:18:06.729Z,98945.33
2023-05-17T14:20:33.570Z,98942.50
2023-05-17T14:23:00.615Z,98940.77
2023-05-17T14:25:27.277Z,98941.37
2023-05-17T14:27:54.117Z,98942.98
2023-05-17T14:30:21.150Z,98939.42
2023-05-17T14:32:47.853Z,98941.08
2023-05-17T14:35:14.790Z,98945.33
2023-05-17T14:37:41.574Z,98941.79
2023-05-17T14:40:09.206Z,98938.08
2023-05-17T14:42:35.977Z,98940.02
2023-05-17T14:45:02.690Z,98938.30
2023-05-17T14:47:29.373Z,98934.82
2023-05-17T14:49:56.377Z,98928.73
2023-05-17T14:52:25.063Z,98931.80
2023-05-17T14:54:51.842Z,98934.71
2023-05-17T14:57:18.735Z,98935.83
2023-05-17T14:59:45.486Z,98936.36
2023-05-17T15:02:12.286Z,98932.82
2023-05-17T15:04:39.077Z,98937.34
2023-05-17T15:07:06.368Z,98936.46
2023-05-17T15:09:38.073Z,98936.77
2023-05-17T15:12:05.166Z,98939.45
2023-05-17T15:14:37.383Z,98936.56
2023-05-17T15:17:04.510Z,98938.77
2023-05-17T15:19:32.327Z,98942.95
2023-05-17T15:21:59.310Z,98942.14
2023-05-17T15:24:26.116Z,98941.86
2023-05-17T15:26:52.839Z,98945.90
2023-05-17T15:29:19.546Z,98948.17
2023-05-17T15:31:46.460Z,98953.56
2023-05-17T15:34:13.266Z,98949.69
2023-05-17T15:36:40.205Z,98947.92
2023-05-17T15:39:06.996Z,98940.52
2023-05-17T15:41:33.778Z,98942.83
2023-05-17T15:44:00.779Z,98939.20
2023-05-17T15:46:27.520Z,98942.68
2023-05-17T15:48:54.285Z,98942.08
2023-05-17T15:51:20.987Z,98945.14
2023-05-17T15:53:48.282Z,98943.82
2023-05-17T15:56:17.488Z,98948.67
2023-05-17T15:58:44.201Z,98949.92
2023-05-17T16:01:10.962Z,98956.00
2023-05-17T16:03:37.878Z,98947.71
2023-05-17T16:06:05.021Z,98948.95
2023-05-17T16:08:31.786Z,98944.19
2023-05-17T16:10:59.785Z,98950.73
2023-05-17T16:13:28.218Z,98947.61
2023-05-17T16:15:56.126Z,98952.39
2023-05-17T16:18:22.937Z,98950.16
2023-05-17T16:20:51.567Z,98955.73
2023-05-17T16:23:18.203Z,98953.27
2023-05-17T16:25:45.084Z,98958.94
2023-05-17T16:28:11.726Z,98953.85
2023-05-17T16:30:38.418Z,98953.33
2023-05-17T16:33:06.895Z,98950.80
2023-05-17T16:35:35.071Z,98955.74
2023-05-17T16:38:01.780Z,98952.81
2023-05-17T16:40:28.922Z,98951.66
2023-05-17T16:42:55.870Z,98951.23
2023-05-17T16:45:22.593Z,98946.66
2023-05-17T16:47:49.282Z,98954.98
2023-05-17T16:50:16.217Z,98955.39
2023-05-17T16:52:43.208Z,98959.55
2023-05-17T16:55:10.096Z,98957.41
2023-05-17T16:57:36.965Z,98955.83
2023-05-17T17:00:04.019Z,98964.12
2023-05-17T17:02:30.821Z,98965.04
2023-05-17T17:04:58.549Z,98967.98
2023-05-17T17:07:25.207Z,98963.41
2023-05-17T17:09:51.865Z,98965.79
2023-05-17T17:12:24.538Z,98968.14
2023-05-17T17:14:51.829Z,98966.81
2023-05-17T17:17:18.481Z,98965.94
2023-05-17T17:19:45.142Z,98967.78
2023-05-17T17:22:14.198Z,98967.27
2023-05-17T17:24:40.964Z,98971.54
2023-05-17T17:27:07.706Z,98970.98
2023-05-17T17:29:34.512Z,98971.79
2023-05-17T17:32:01.422Z,98972.60
2023-05-17T17:34:28.101Z,98976.05
2023-05-17T17:36:54.797Z,98973.84
2023-05-17T17:39:21.509Z,98970.44
2023-05-17T17:41:48.230Z,98977.27
2023-05-17T17:44:14.923Z,98979.39
2023-05-17T17:46:41.725Z,98980.50
2023-05-17T17:49:08.445Z,98981.68
2023-05-17T17:51:35.403Z,98982.27
2023-05-17T17:54:04.914Z,98984.52
2023-05-17T17:56:32.825Z,98986.52
2023-05-17T17:58:59.870Z,98987.34
2023-05-17T18:01:26.973Z,98989.04
2023-05-17T18:03:53.705Z,98991.45
2023-05-17T18:06:20.383Z,98996.66
2023-05-17T18:08:47.066Z,98998.14
2023-05-17T18:11:13.758Z,99001.20
2023-05-17T18:13:40.521Z,99003.08
2023-05-17T18:16:07.207Z,99002.16
2023-05-17T18:18:34.101Z,99005.23
2023-05-17T18:21:00.854Z,99006.45
2023-05-17T18:23:27.596Z,99008.08
2023-05-17T18:25:54.245Z,99013.21
2023-05-17T18:28:30.073Z,99013.20
2023-05-17T18:31:07.638Z,99016.85
2023-05-17T18:33:35.187Z,99018.98
2023-05-17T18:36:01.936Z,99021.39
2023-05-17T18:38:28.888Z,99024.08
2023-05-17T18:40:55.891Z,99026.36
2023-05-17T18:43:22.525Z,99026.66
2023-05-17T18:45:49.183Z,99032.19
2023-05-17T18:48:16.113Z,99031.90
2023-05-17T18:50:42.946Z,99037.86
2023-05-17T18:53:09.957Z,99038.81
2023-05-17T18:55:36.689Z,99041.89
2023-05-17T18:58:03.338Z,99046.02
2023-05-17T19:00:30.152Z,99048.04
2023-05-17T19:02:57.044Z,99050.93
2023-05-17T19:05:23.798Z,99051.55
2023-05-17T19:07:50.420Z,99054.00
2023-05-17T19:10:18.374Z,99050.96
2023-05-17T19:12:45.764Z,99053.79
2023-05-17T19:15:12.597Z,99056.04
2023-05-17T19:17:39.422Z,99057.89
2023-05-17T19:20:06.566Z,99062.38
2023-05-17T19:22:35.543Z,99064.70
2023-05-17T19:25:02.359Z,99069.52
2023-05-17T19:27:29.006Z,99069.16
2023-05-17T19:29:55.941Z,99072.95
2023-05-17T19:32:22.963Z,99069.50
2023-05-17T19:34:49.867Z,99073.02
2023-05-17T19:37:16.729Z,99074.95
2023-05-17T19:39:43.516Z,99076.17
2023-05-17T19:42:10.345Z,99078.02
2023-05-17T19:44:37.319Z,99079.93
2023-05-17T19:47:04.052Z,99079.83
2023-05-17T19:49:30.688Z,99082.17
2023-05-17T19:52:00.722Z,99084.92
2023-05-17T19:54:28.052Z,99087.27
2023-05-17T19:56:54.777Z,99084.30
2023-05-17T19:59:21.596Z,99091.55
2023-05-17T20:01:48.509Z,99093.74
2023-05-17T20:04:15.211Z,99097.81
2023-05-17T20:06:41.914Z,99097.60
2023-05-17T20:09:08.682Z,99102.59
2023-05-17T20:11:35.558Z,99102.00
2023-05-17T20:14:02.196Z,99105.73
2023-05-17T20:16:30.934Z,99104.21
2023-05-17T20:19:01.132Z,99107.34
2023-05-17T20:21:27.942Z,99108.13
2023-05-17T20:24:01.266Z,99106.56
2023-05-17T20:26:31.857Z,99111.80
2023-05-17T20:29:01.661Z,99115.30
2023-05-17T20:31:28.333Z,99118.71
2023-05-17T20:33:55.073Z,99116.77
2023-05-17T20:36:21.842Z,99116.81
2023-05-17T20:38:48.561Z,99121.16
2023-05-17T20:41:15.999Z,99119.71
2023-05-17T20:43:45.307Z,99121.03
2023-05-17T20:46:13.201Z,99121.56
2023-05-17T20:48:42.746Z,99125.80
2023-05-17T20:51:10.168Z,99124.19
2023-05-17T20:53:36.905Z,99125.71
2023-05-17T20:56:03.614Z,99128.05
2023-05-17T20:58:30.508Z,99127.38
2023-05-17T21:00:57.571Z,99125.14
2023-05-17T21:03:28.266Z,99125.13
2023-05-17T21:05:55.291Z,99124.61
2023-05-17T21:08:21.963Z,99125.77
2023-05-17T21:10:51.619Z,99123.38
2023-05-17T21:13:18.378Z,99130.06
2023-05-17T21:15:45.150Z,99126.34
2023-05-17T21:18:11.935Z,99130.02
2023-05-17T21:20:38.953Z,99129.83
2023-05-17T21:23:05.739Z,99130.91
2023-05-17T21:25:32.630Z,99130.14
2023-05-17T21:27:59.682Z,99127.95
2023-05-17T21:30:26.451Z,99127.55
2023-05-17T21:32:53.211Z,99127.49
2023-05-17T21:35:20.081Z,99126.45
2023-05-17T21:37:47.243Z,99126.55
2023-05-17T21:40:14.651Z,99127.16
2023-05-17T21:42:41.711Z,99127.60
2023-05-17T21:45:08.588Z,99123.84
2023-05-17T21:47:36.099Z,99124.88
2023-05-17T21:50:03.552Z,99123.25
2023-05-17T21:52:30.537Z,99124.11
2023-05-17T21:54:57.189Z,99124.61
2023-05-17T21:57:23.848Z,99122.98
2023-05-17T21:59:50.768Z,99126.61
2023-05-17T22:02:17.594Z,99121.98
2023-05-17T22:04:44.346Z,99122.00
2023-05-17T22:07:11.292Z,99121.63
2023-05-17T22:09:38.152Z,99127.16
2023-05-17T22:12:08.419Z,99127.17
2023-05-17T22:14:36.448Z,99126.55
2023-05-17T22:17:09.149Z,99126.55
2023-05-17T22:19:40.713Z,99123.55
2023-05-17T22:22:07.854Z,99125.73
2023-05-17T22:24:34.585Z,99122.94
2023-05-17T22:27:01.479Z,99123.06
2023-05-17T22:29:28.158Z,99121.34
2023-05-17T22:31:54.865Z,99118.08
2023-05-17T22:34:21.950Z,99117.98
2023-05-17T22:36:48.878Z,99116.34
2023-05-17T22:39:15.587Z,99118.23
2023-05-17T22:41:42.222Z,99114.12
2023-05-17T22:44:08.908Z,99111.43
2023-05-17T22:46:35.987Z,99111.00
2023-05-17T22:49:02.697Z,99113.92
2023-05-17T22:51:30.032Z,99118.94
2023-05-17T22:53:57.028Z,99117.91
2023-05-17T22:56:23.695Z,99115.84
2023-05-17T22:58:50.421Z,99112.05
2023-05-17T23:01:17.119Z,99117.39
2023-05-17T23:03:43.811Z,99115.14
2023-05-17T23:06:10.479Z,99118.95
2023-05-17T23:08:37.131Z,99120.40
2023-05-17T23:11:04.875Z,99124.05
2023-05-17T23:13:31.563Z,99130.30
2023-05-17T23:15:58.231Z,99134.20
2023-05-17T23:18:27.468Z,99135.00
2023-05-17T23:20:54.360Z,99135.77
2023-05-17T23:23:23.112Z,99134.70
2023-05-17T23:25:50.720Z,99139.80
2023-05-17T23:28:18.682Z,99139.33
2023-05-17T23:30:48.703Z,99139.45
2023-05-17T23:33:16.492Z,99141.31
2023-05-17T23:35:43.145Z,99137.59
2023-05-17T23:38:09.803Z,99136.27
2023-05-17T23:40:37.165Z,99135.71
2023-05-17T23:43:04.077Z,99136.13
2023-05-17T23:45:31.243Z,99136.67
2023-05-17T23:48:00.444Z,99143.00
2023-05-17T23:50:27.357Z,99144.02
2023-05-17T23:52:54.314Z,99142.90
2023-05-17T23:55:22.500Z,99139.60
2023-05-17T23:57:49.395Z,99137.04
